Woodbine, Pennsylvania
Current Conditions -  °F | °C
As of 2:53 PM on Monday 26 Jan 2015 (Local Time) from KLNS Reporting Station
Overcast Overcast  
Wind Chill: 14°   Ceiling: 1900
Heat Index: 24°   Visibility: 10mi
Dew Point: 18°   Wind: 9mph
Humidity: 77%   Direction: 30°NNE
Pressure: 29.77"   Gusts: NA
Location:  39.8258°N, 76.3995°W
Report Text: KLNS 261953Z 03008KT 10SM BKN019 OVC027 M04/M08 A2977 RMK AO2 SNE30 SLP088 P0000 T10441078
Loading
Personal Weather Stations






























Interactive Weather Map New forecast layout! Learn more

10-Day Weather Forecast

Advertisements
Track Severe Weather on mobile